sensor_id;sensor_type;location;lat;lon;timestamp;pressure;altitude;pressure_sealevel;temperature;humidity
36284;BME280;56085;48.910;9.478;2024-03-08T00:02:14;98127.06;;;8.13;47.34
36284;BME280;56085;48.910;9.478;2024-03-08T00:04:40;98136.88;;;8.26;46.96
36284;BME280;56085;48.910;9.478;2024-03-08T00:07:05;98134.25;;;8.30;46.71
36284;BME280;56085;48.910;9.478;2024-03-08T00:09:32;98128.88;;;8.21;47.05
36284;BME280;56085;48.910;9.478;2024-03-08T00:11:57;98136.44;;;8.24;46.92
36284;BME280;56085;48.910;9.478;2024-03-08T00:14:23;98132.06;;;8.23;46.79
36284;BME280;56085;48.910;9.478;2024-03-08T00:16:48;98120.41;;;8.14;46.94
36284;BME280;56085;48.910;9.478;2024-03-08T00:19:13;98132.13;;;8.11;47.11
36284;BME280;56085;48.910;9.478;2024-03-08T00:21:38;98120.09;;;8.03;47.30
36284;BME280;56085;48.910;9.478;2024-03-08T00:24:04;98115.19;;;7.96;47.50
36284;BME280;56085;48.910;9.478;2024-03-08T00:26:29;98117.16;;;7.96;47.36
36284;BME280;56085;48.910;9.478;2024-03-08T00:28:55;98112.66;;;7.91;47.54
36284;BME280;56085;48.910;9.478;2024-03-08T00:31:20;98114.06;;;7.85;47.27
36284;BME280;56085;48.910;9.478;2024-03-08T00:33:46;98115.41;;;8.03;47.36
36284;BME280;56085;48.910;9.478;2024-03-08T00:36:11;98106.13;;;7.96;47.33
36284;BME280;56085;48.910;9.478;2024-03-08T00:38:37;98102.69;;;7.86;47.69
36284;BME280;56085;48.910;9.478;2024-03-08T00:41:02;98099.38;;;7.93;47.51
36284;BME280;56085;48.910;9.478;2024-03-08T00:43:27;98105.56;;;7.90;47.30
36284;BME280;56085;48.910;9.478;2024-03-08T00:45:53;98095.25;;;7.87;47.18
36284;BME280;56085;48.910;9.478;2024-03-08T00:48:19;98094.00;;;7.84;47.51
36284;BME280;56085;48.910;9.478;2024-03-08T00:50:44;98093.78;;;7.77;47.30
36284;BME280;56085;48.910;9.478;2024-03-08T00:53:13;98092.44;;;7.59;47.65
36284;BME280;56085;48.910;9.478;2024-03-08T00:55:38;98084.53;;;7.57;47.57
36284;BME280;56085;48.910;9.478;2024-03-08T00:58:04;98087.75;;;7.47;48.05
36284;BME280;56085;48.910;9.478;2024-03-08T01:00:30;98080.75;;;7.49;48.02
36284;BME280;56085;48.910;9.478;2024-03-08T01:02:55;98083.59;;;7.53;47.77
36284;BME280;56085;48.910;9.478;2024-03-08T01:05:20;98080.16;;;7.56;48.17
36284;BME280;56085;48.910;9.478;2024-03-08T01:07:46;98080.84;;;7.53;47.63
36284;BME280;56085;48.910;9.478;2024-03-08T01:10:11;98075.94;;;7.46;48.35
36284;BME280;56085;48.910;9.478;2024-03-08T01:12:38;98080.28;;;7.60;47.56
36284;BME280;56085;48.910;9.478;2024-03-08T01:15:03;98072.81;;;7.60;47.81
36284;BME280;56085;48.910;9.478;2024-03-08T01:17:29;98067.53;;;7.67;47.70
36284;BME280;56085;48.910;9.478;2024-03-08T01:19:54;98071.34;;;7.63;47.49
36284;BME280;56085;48.910;9.478;2024-03-08T01:22:19;98061.59;;;7.65;47.33
36284;BME280;56085;48.910;9.478;2024-03-08T01:24:45;98059.63;;;7.66;47.33
36284;BME280;56085;48.910;9.478;2024-03-08T01:27:10;98055.97;;;7.62;47.51
36284;BME280;56085;48.910;9.478;2024-03-08T01:29:37;98049.41;;;7.66;47.12
36284;BME280;56085;48.910;9.478;2024-03-08T01:32:02;98049.31;;;7.63;47.28
36284;BME280;56085;48.910;9.478;2024-03-08T01:34:28;98049.44;;;7.54;47.66
36284;BME280;56085;48.910;9.478;2024-03-08T01:36:54;98048.31;;;7.55;47.69
36284;BME280;56085;48.910;9.478;2024-03-08T01:39:21;98037.09;;;7.48;47.82
36284;BME280;56085;48.910;9.478;2024-03-08T01:41:47;98031.47;;;7.57;47.46
36284;BME280;56085;48.910;9.478;2024-03-08T01:44:12;98033.38;;;7.56;47.37
36284;BME280;56085;48.910;9.478;2024-03-08T01:46:43;98024.44;;;7.59;47.37
36284;BME280;56085;48.910;9.478;2024-03-08T01:49:09;98027.09;;;7.56;47.31
36284;BME280;56085;48.910;9.478;2024-03-08T01:51:35;98019.69;;;7.72;47.38
36284;BME280;56085;48.910;9.478;2024-03-08T01:54:01;98027.66;;;7.49;47.73
36284;BME280;56085;48.910;9.478;2024-03-08T01:56:28;98028.00;;;7.60;47.34
36284;BME280;56085;48.910;9.478;2024-03-08T01:58:54;98022.88;;;7.46;47.72
36284;BME280;56085;48.910;9.478;2024-03-08T02:01:20;98009.03;;;7.42;47.96
36284;BME280;56085;48.910;9.478;2024-03-08T02:03:45;98009.13;;;7.46;47.34
36284;BME280;56085;48.910;9.478;2024-03-08T02:06:12;98001.69;;;7.34;47.84
36284;BME280;56085;48.910;9.478;2024-03-08T02:08:39;97995.16;;;7.39;47.74
36284;BME280;56085;48.910;9.478;2024-03-08T02:11:07;97992.97;;;7.44;47.50
36284;BME280;56085;48.910;9.478;2024-03-08T02:13:32;97994.13;;;7.31;48.18
36284;BME280;56085;48.910;9.478;2024-03-08T02:16:00;97987.03;;;7.30;47.78
36284;BME280;56085;48.910;9.478;2024-03-08T02:18:25;97988.28;;;7.32;47.82
36284;BME280;56085;48.910;9.478;2024-03-08T02:20:58;97988.16;;;7.41;47.61
36284;BME280;56085;48.910;9.478;2024-03-08T02:23:25;97983.84;;;7.28;47.64
36284;BME280;56085;48.910;9.478;2024-03-08T02:25:51;97979.13;;;7.28;47.73
36284;BME280;56085;48.910;9.478;2024-03-08T02:28:17;97978.44;;;7.31;48.08
36284;BME280;56085;48.910;9.478;2024-03-08T02:30:46;97971.69;;;7.29;47.74
36284;BME280;56085;48.910;9.478;2024-03-08T02:33:13;97975.25;;;7.29;48.42
36284;BME280;56085;48.910;9.478;2024-03-08T02:35:41;97966.78;;;7.22;48.11
36284;BME280;56085;48.910;9.478;2024-03-08T02:38:07;97962.53;;;7.12;47.77
36284;BME280;56085;48.910;9.478;2024-03-08T02:40:32;97963.25;;;7.09;48.07
36284;BME280;56085;48.910;9.478;2024-03-08T02:42:57;97957.97;;;7.16;47.84
36284;BME280;56085;48.910;9.478;2024-03-08T02:45:23;97966.59;;;7.03;48.14
36284;BME280;56085;48.910;9.478;2024-03-08T02:47:48;97963.81;;;7.15;48.34
36284;BME280;56085;48.910;9.478;2024-03-08T02:50:16;97960.63;;;7.13;48.35
36284;BME280;56085;48.910;9.478;2024-03-08T02:52:42;97953.94;;;7.14;47.95
36284;BME280;56085;48.910;9.478;2024-03-08T02:55:08;97960.03;;;7.07;48.26
36284;BME280;56085;48.910;9.478;2024-03-08T02:57:35;97945.94;;;7.09;47.92
36284;BME280;56085;48.910;9.478;2024-03-08T03:00:01;97955.03;;;6.97;48.64
36284;BME280;56085;48.910;9.478;2024-03-08T03:02:26;97948.13;;;7.03;48.30
36284;BME280;56085;48.910;9.478;2024-03-08T03:04:52;97947.34;;;6.90;48.59
36284;BME280;56085;48.910;9.478;2024-03-08T03:07:17;97942.53;;;6.99;48.48
36284;BME280;56085;48.910;9.478;2024-03-08T03:09:42;97938.06;;;7.07;48.49
36284;BME280;56085;48.910;9.478;2024-03-08T03:12:08;97941.50;;;7.04;48.12
36284;BME280;56085;48.910;9.478;2024-03-08T03:14:35;97936.22;;;7.11;48.22
36284;BME280;56085;48.910;9.478;2024-03-08T03:17:00;97948.44;;;7.14;48.11
36284;BME280;56085;48.910;9.478;2024-03-08T03:19:27;97930.84;;;7.03;48.20
36284;BME280;56085;48.910;9.478;2024-03-08T03:21:54;97934.97;;;7.09;48.28
36284;BME280;56085;48.910;9.478;2024-03-08T03:24:19;97926.84;;;7.00;48.50
36284;BME280;56085;48.910;9.478;2024-03-08T03:26:46;97927.19;;;6.98;48.82
36284;BME280;56085;48.910;9.478;2024-03-08T03:29:13;97930.84;;;7.03;48.42
36284;BME280;56085;48.910;9.478;2024-03-08T03:31:39;97924.31;;;6.95;48.64
36284;BME280;56085;48.910;9.478;2024-03-08T03:34:05;97920.13;;;6.85;48.53
36284;BME280;56085;48.910;9.478;2024-03-08T03:36:34;97921.69;;;6.86;49.02
36284;BME280;56085;48.910;9.478;2024-03-08T03:39:00;97915.41;;;6.86;48.88
36284;BME280;56085;48.910;9.478;2024-03-08T03:41:41;97916.75;;;6.92;48.71
36284;BME280;56085;48.910;9.478;2024-03-08T03:44:07;97914.16;;;6.83;48.91
36284;BME280;56085;48.910;9.478;2024-03-08T03:46:33;97907.41;;;6.80;48.88
36284;BME280;56085;48.910;9.478;2024-03-08T03:48:58;97912.44;;;6.78;49.41
36284;BME280;56085;48.910;9.478;2024-03-08T03:51:24;97912.31;;;6.87;48.92
36284;BME280;56085;48.910;9.478;2024-03-08T03:53:49;97902.81;;;6.85;48.71
36284;BME280;56085;48.910;9.478;2024-03-08T03:56:15;97906.25;;;6.81;48.92
36284;BME280;56085;48.910;9.478;2024-03-08T03:58:40;97904.31;;;6.82;48.63
36284;BME280;56085;48.910;9.478;2024-03-08T04:01:05;97899.13;;;6.93;48.97
36284;BME280;56085;48.910;9.478;2024-03-08T04:03:31;97898.69;;;6.91;48.92
36284;BME280;56085;48.910;9.478;2024-03-08T04:05:56;97894.56;;;6.85;48.70
36284;BME280;56085;48.910;9.478;2024-03-08T04:08:22;97897.44;;;6.88;48.95
36284;BME280;56085;48.910;9.478;2024-03-08T04:10:49;97890.78;;;6.89;48.74
36284;BME280;56085;48.910;9.478;2024-03-08T04:13:14;97890.94;;;6.80;48.82
36284;BME280;56085;48.910;9.478;2024-03-08T04:15:40;97891.72;;;6.81;48.60
36284;BME280;56085;48.910;9.478;2024-03-08T04:18:06;97890.00;;;6.76;48.67
36284;BME280;56085;48.910;9.478;2024-03-08T04:20:32;97892.84;;;6.80;48.75
36284;BME280;56085;48.910;9.478;2024-03-08T04:22:57;97890.09;;;6.80;48.82
36284;BME280;56085;48.910;9.478;2024-03-08T04:25:22;97893.31;;;6.82;49.39
36284;BME280;56085;48.910;9.478;2024-03-08T04:27:48;97893.91;;;6.75;49.14
36284;BME280;56085;48.910;9.478;2024-03-08T04:30:14;97888.66;;;6.70;49.39
36284;BME280;56085;48.910;9.478;2024-03-08T04:32:40;97888.84;;;6.90;49.05
36284;BME280;56085;48.910;9.478;2024-03-08T04:35:06;97888.63;;;6.82;48.79
36284;BME280;56085;48.910;9.478;2024-03-08T04:37:33;97889.19;;;6.76;49.66
36284;BME280;56085;48.910;9.478;2024-03-08T04:39:59;97885.31;;;6.77;48.84
36284;BME280;56085;48.910;9.478;2024-03-08T04:42:25;97892.16;;;6.95;49.01
36284;BME280;56085;48.910;9.478;2024-03-08T04:44:51;97879.59;;;6.70;49.22
36284;BME280;56085;48.910;9.478;2024-03-08T04:47:18;97882.25;;;6.66;49.03
36284;BME280;56085;48.910;9.478;2024-03-08T04:49:44;97878.31;;;6.79;48.65
36284;BME280;56085;48.910;9.478;2024-03-08T04:52:09;97871.69;;;6.80;48.81
36284;BME280;56085;48.910;9.478;2024-03-08T04:54:34;97874.88;;;6.82;49.01
36284;BME280;56085;48.910;9.478;2024-03-08T04:57:00;97873.88;;;6.75;48.98
36284;BME280;56085;48.910;9.478;2024-03-08T04:59:26;97872.16;;;6.70;49.30
36284;BME280;56085;48.910;9.478;2024-03-08T05:01:52;97869.06;;;6.72;49.39
36284;BME280;56085;48.910;9.478;2024-03-08T05:04:17;97865.63;;;6.62;49.68
36284;BME280;56085;48.910;9.478;2024-03-08T05:06:43;97865.75;;;6.66;49.16
36284;BME280;56085;48.910;9.478;2024-03-08T05:09:08;97859.00;;;6.63;49.23
36284;BME280;56085;48.910;9.478;2024-03-08T05:11:44;97854.44;;;6.55;49.31
36284;BME280;56085;48.910;9.478;2024-03-08T05:14:10;97852.47;;;6.80;48.62
36284;BME280;56085;48.910;9.478;2024-03-08T05:16:36;97852.94;;;6.70;49.34
36284;BME280;56085;48.910;9.478;2024-03-08T05:19:02;97852.03;;;6.66;49.40
36284;BME280;56085;48.910;9.478;2024-03-08T05:21:27;97855.56;;;6.67;49.60
36284;BME280;56085;48.910;9.478;2024-03-08T05:23:54;97852.94;;;6.58;49.80
36284;BME280;56085;48.910;9.478;2024-03-08T05:26:19;97861.31;;;6.61;49.24
36284;BME280;56085;48.910;9.478;2024-03-08T05:28:44;97855.69;;;6.70;49.36
36284;BME280;56085;48.910;9.478;2024-03-08T05:31:10;97846.97;;;6.68;49.21
36284;BME280;56085;48.910;9.478;2024-03-08T05:33:35;97858.44;;;6.58;49.63
36284;BME280;56085;48.910;9.478;2024-03-08T05:36:00;97852.38;;;6.64;49.31
36284;BME280;56085;48.910;9.478;2024-03-08T05:38:27;97849.28;;;6.66;49.55
36284;BME280;56085;48.910;9.478;2024-03-08T05:40:53;97856.38;;;6.55;49.46
36284;BME280;56085;48.910;9.478;2024-03-08T05:43:19;97844.69;;;6.58;49.35
36284;BME280;56085;48.910;9.478;2024-03-08T05:45:45;97854.53;;;6.71;49.53
36284;BME280;56085;48.910;9.478;2024-03-08T05:48:11;97850.50;;;6.69;49.22
36284;BME280;56085;48.910;9.478;2024-03-08T05:50:38;97852.47;;;6.80;49.27
36284;BME280;56085;48.910;9.478;2024-03-08T05:53:04;97843.19;;;6.73;48.99
36284;BME280;56085;48.910;9.478;2024-03-08T05:55:34;97845.22;;;6.76;49.37
36284;BME280;56085;48.910;9.478;2024-03-08T05:58:00;97842.09;;;6.61;49.23
36284;BME280;56085;48.910;9.478;2024-03-08T06:00:26;97846.50;;;6.78;49.25
36284;BME280;56085;48.910;9.478;2024-03-08T06:02:52;97840.09;;;6.74;49.41
36284;BME280;56085;48.910;9.478;2024-03-08T06:05:17;97835.16;;;6.80;49.15
36284;BME280;56085;48.910;9.478;2024-03-08T06:07:43;97840.66;;;6.80;49.09
36284;BME280;56085;48.910;9.478;2024-03-08T06:10:09;97841.00;;;6.78;49.79
36284;BME280;56085;48.910;9.478;2024-03-08T06:12:36;97842.78;;;6.99;48.89
36284;BME280;56085;48.910;9.478;2024-03-08T06:15:08;97843.69;;;7.03;49.13
36284;BME280;56085;48.910;9.478;2024-03-08T06:17:35;97849.09;;;6.99;48.45
36284;BME280;56085;48.910;9.478;2024-03-08T06:20:01;97844.38;;;7.00;49.17
36284;BME280;56085;48.910;9.478;2024-03-08T06:22:27;97844.22;;;7.09;48.96
36284;BME280;56085;48.910;9.478;2024-03-08T06:24:53;97840.69;;;7.08;48.77
36284;BME280;56085;48.910;9.478;2024-03-08T06:27:19;97841.84;;;7.07;48.70
36284;BME280;56085;48.910;9.478;2024-03-08T06:29:44;97838.19;;;7.03;48.67
36284;BME280;56085;48.910;9.478;2024-03-08T06:32:10;97838.38;;;7.10;48.96
36284;BME280;56085;48.910;9.478;2024-03-08T06:34:35;97841.06;;;7.23;48.82
36284;BME280;56085;48.910;9.478;2024-03-08T06:37:01;97847.88;;;7.13;48.22
36284;BME280;56085;48.910;9.478;2024-03-08T06:39:27;97860.44;;;7.26;48.50
36284;BME280;56085;48.910;9.478;2024-03-08T06:41:53;97848.03;;;7.32;48.37
36284;BME280;56085;48.910;9.478;2024-03-08T06:44:19;97850.56;;;7.25;48.76
36284;BME280;56085;48.910;9.478;2024-03-08T06:46:47;97843.31;;;7.17;48.49
36284;BME280;56085;48.910;9.478;2024-03-08T06:49:13;97846.19;;;7.37;48.30
36284;BME280;56085;48.910;9.478;2024-03-08T06:51:38;97854.03;;;7.50;48.22
36284;BME280;56085;48.910;9.478;2024-03-08T06:54:06;97856.72;;;7.63;47.80
36284;BME280;56085;48.910;9.478;2024-03-08T06:56:33;97852.31;;;7.74;47.65
36284;BME280;56085;48.910;9.478;2024-03-08T06:58:59;97856.78;;;7.66;48.00
36284;BME280;56085;48.910;9.478;2024-03-08T07:01:24;97850.31;;;7.59;47.96
36284;BME280;56085;48.910;9.478;2024-03-08T07:03:49;97852.84;;;7.80;47.49
36284;BME280;56085;48.910;9.478;2024-03-08T07:06:17;97852.41;;;7.94;47.63
36284;BME280;56085;48.910;9.478;2024-03-08T07:08:44;97857.38;;;8.20;46.96
36284;BME280;56085;48.910;9.478;2024-03-08T07:11:11;97851.31;;;8.30;46.81
36284;BME280;56085;48.910;9.478;2024-03-08T07:13:37;97860.66;;;8.42;46.46
36284;BME280;56085;48.910;9.478;2024-03-08T07:16:04;97852.38;;;8.58;46.63
36284;BME280;56085;48.910;9.478;2024-03-08T07:18:30;97856.09;;;8.65;46.33
36284;BME280;56085;48.910;9.478;2024-03-08T07:20:56;97848.09;;;8.76;46.16
36284;BME280;56085;48.910;9.478;2024-03-08T07:23:21;97847.38;;;8.99;45.79
36284;BME280;56085;48.910;9.478;2024-03-08T07:26:05;97848.16;;;8.99;45.72
36284;BME280;56085;48.910;9.478;2024-03-08T07:28:31;97841.22;;;9.05;45.68
36284;BME280;56085;48.910;9.478;2024-03-08T07:30:58;97843.25;;;9.28;45.52
36284;BME280;56085;48.910;9.478;2024-03-08T07:33:42;97831.63;;;9.38;45.05
36284;BME280;56085;48.910;9.478;2024-03-08T07:36:07;97824.63;;;9.44;44.95
36284;BME280;56085;48.910;9.478;2024-03-08T07:38:33;97822.69;;;9.45;45.07
36284;BME280;56085;48.910;9.478;2024-03-08T07:40:59;97818.88;;;9.53;44.76
36284;BME280;56085;48.910;9.478;2024-03-08T07:43:25;97819.56;;;9.47;45.02
36284;BME280;56085;48.910;9.478;2024-03-08T07:45:50;97825.31;;;9.38;45.03
36284;BME280;56085;48.910;9.478;2024-03-08T07:48:17;97834.38;;;9.58;44.80
36284;BME280;56085;48.910;9.478;2024-03-08T07:50:43;97824.66;;;9.68;44.48
36284;BME280;56085;48.910;9.478;2024-03-08T07:53:08;97820.50;;;9.77;44.43
36284;BME280;56085;48.910;9.478;2024-03-08T07:55:35;97817.69;;;9.97;44.03
36284;BME280;56085;48.910;9.478;2024-03-08T07:58:02;97815.41;;;10.03;44.13
36284;BME280;56085;48.910;9.478;2024-03-08T08:00:28;97811.75;;;9.95;43.91
36284;BME280;56085;48.910;9.478;2024-03-08T08:02:54;97812.47;;;9.92;44.15
36284;BME280;56085;48.910;9.478;2024-03-08T08:05:19;97807.09;;;9.99;43.96
36284;BME280;56085;48.910;9.478;2024-03-08T08:07:45;97805.38;;;10.18;44.02
36284;BME280;56085;48.910;9.478;2024-03-08T08:10:14;97814.91;;;10.20;43.84
36284;BME280;56085;48.910;9.478;2024-03-08T08:12:50;97810.59;;;10.23;43.46
36284;BME280;56085;48.910;9.478;2024-03-08T08:15:16;97812.47;;;10.15;43.57
36284;BME280;56085;48.910;9.478;2024-03-08T08:17:43;97810.25;;;10.24;43.38
36284;BME280;56085;48.910;9.478;2024-03-08T08:20:10;97807.34;;;10.40;43.17
36284;BME280;56085;48.910;9.478;2024-03-08T08:22:37;97805.75;;;10.16;43.64
36284;BME280;56085;48.910;9.478;2024-03-08T08:25:04;97805.81;;;10.20;43.54
36284;BME280;56085;48.910;9.478;2024-03-08T08:27:29;97812.47;;;10.38;43.21
36284;BME280;56085;48.910;9.478;2024-03-08T08:29:56;97806.31;;;10.48;43.10
36284;BME280;56085;48.910;9.478;2024-03-08T08:32:22;97808.09;;;10.64;42.62
36284;BME280;56085;48.910;9.478;2024-03-08T08:34:47;97809.72;;;10.69;42.66
36284;BME280;56085;48.910;9.478;2024-03-08T08:37:13;97799.88;;;10.71;42.81
36284;BME280;56085;48.910;9.478;2024-03-08T08:39:38;97801.72;;;10.90;42.07
36284;BME280;56085;48.910;9.478;2024-03-08T08:42:04;97803.72;;;10.93;42.25
36284;BME280;56085;48.910;9.478;2024-03-08T08:44:29;97793.31;;;10.83;42.24
36284;BME280;56085;48.910;9.478;2024-03-08T08:46:57;97798.66;;;10.99;41.82
36284;BME280;56085;48.910;9.478;2024-03-08T08:49:22;97787.78;;;10.83;42.23
36284;BME280;56085;48.910;9.478;2024-03-08T08:51:49;97791.78;;;10.86;41.92
36284;BME280;56085;48.910;9.478;2024-03-08T08:54:15;97786.47;;;11.04;41.25
36284;BME280;56085;48.910;9.478;2024-03-08T08:56:42;97779.00;;;11.08;41.86
36284;BME280;56085;48.910;9.478;2024-03-08T08:59:09;97775.38;;;11.00;41.84
36284;BME280;56085;48.910;9.478;2024-03-08T09:01:34;97776.81;;;11.24;41.44
36284;BME280;56085;48.910;9.478;2024-03-08T09:04:00;97768.66;;;11.35;41.12
36284;BME280;56085;48.910;9.478;2024-03-08T09:06:25;97771.81;;;11.37;41.03
36284;BME280;56085;48.910;9.478;2024-03-08T09:08:51;97763.59;;;11.44;41.47
36284;BME280;56085;48.910;9.478;2024-03-08T09:11:16;97765.78;;;11.65;41.06
36284;BME280;56085;48.910;9.478;2024-03-08T09:13:44;97766.06;;;11.94;40.79
36284;BME280;56085;48.910;9.478;2024-03-08T09:16:11;97759.25;;;11.84;40.57
36284;BME280;56085;48.910;9.478;2024-03-08T09:18:36;97756.78;;;11.76;40.60
36284;BME280;56085;48.910;9.478;2024-03-08T09:21:01;97758.69;;;12.09;39.86
36284;BME280;56085;48.910;9.478;2024-03-08T09:23:28;97756.34;;;12.18;39.98
36284;BME280;56085;48.910;9.478;2024-03-08T09:25:56;97761.94;;;12.26;40.27
36284;BME280;56085;48.910;9.478;2024-03-08T09:28:23;97754.31;;;12.12;39.99
36284;BME280;56085;48.910;9.478;2024-03-08T09:30:48;97757.56;;;12.21;39.54
36284;BME280;56085;48.910;9.478;2024-03-08T09:33:14;97753.78;;;12.47;39.64
36284;BME280;56085;48.910;9.478;2024-03-08T09:35:44;97747.50;;;12.57;39.55
36284;BME280;56085;48.910;9.478;2024-03-08T09:38:11;97751.44;;;12.53;39.52
36284;BME280;56085;48.910;9.478;2024-03-08T09:40:38;97745.59;;;12.76;39.17
36284;BME280;56085;48.910;9.478;2024-03-08T09:43:04;97741.25;;;12.79;39.31
36284;BME280;56085;48.910;9.478;2024-03-08T09:45:31;97740.06;;;12.83;39.05
36284;BME280;56085;48.910;9.478;2024-03-08T09:48:01;97743.28;;;12.85;38.92
36284;BME280;56085;48.910;9.478;2024-03-08T09:50:26;97744.09;;;12.93;39.00
36284;BME280;56085;48.910;9.478;2024-03-08T09:52:55;97745.31;;;13.03;38.52
36284;BME280;56085;48.910;9.478;2024-03-08T09:55:22;97735.41;;;12.98;38.77
36284;BME280;56085;48.910;9.478;2024-03-08T09:57:47;97728.38;;;13.37;38.20
36284;BME280;56085;48.910;9.478;2024-03-08T10:00:33;97735.13;;;13.39;38.44
36284;BME280;56085;48.910;9.478;2024-03-08T10:03:02;97731.97;;;13.48;37.81
36284;BME280;56085;48.910;9.478;2024-03-08T10:05:28;97729.63;;;13.90;37.37
36284;BME280;56085;48.910;9.478;2024-03-08T10:07:53;97716.47;;;14.34;36.83
36284;BME280;56085;48.910;9.478;2024-03-08T10:10:18;97718.38;;;14.58;36.59
36284;BME280;56085;48.910;9.478;2024-03-08T10:12:44;97715.50;;;14.91;35.99
36284;BME280;56085;48.910;9.478;2024-03-08T10:15:10;97717.34;;;15.26;35.82
36284;BME280;56085;48.910;9.478;2024-03-08T10:17:37;97704.44;;;15.50;35.16
36284;BME280;56085;48.910;9.478;2024-03-08T10:20:13;97696.25;;;15.85;34.48
36284;BME280;56085;48.910;9.478;2024-03-08T10:22:40;97695.50;;;15.74;34.42
36284;BME280;56085;48.910;9.478;2024-03-08T10:25:08;97695.13;;;15.79;34.24
36284;BME280;56085;48.910;9.478;2024-03-08T10:27:35;97696.91;;;16.42;33.74
36284;BME280;56085;48.910;9.478;2024-03-08T10:30:01;97691.50;;;16.62;33.89
36284;BME280;56085;48.910;9.478;2024-03-08T10:32:26;97697.78;;;16.69;33.37
36284;BME280;56085;48.910;9.478;2024-03-08T10:34:52;97694.56;;;16.36;33.28
36284;BME280;56085;48.910;9.478;2024-03-08T10:37:21;97680.97;;;16.77;32.97
36284;BME280;56085;48.910;9.478;2024-03-08T10:39:58;97680.53;;;16.78;32.61
36284;BME280;56085;48.910;9.478;2024-03-08T10:42:57;97677.00;;;17.08;32.95
36284;BME280;56085;48.910;9.478;2024-03-08T10:45:37;97674.28;;;17.28;31.78
36284;BME280;56085;48.910;9.478;2024-03-08T10:50:37;97659.78;;;17.65;32.01
36284;BME280;56085;48.910;9.478;2024-03-08T10:53:06;97669.69;;;17.69;31.58
36284;BME280;56085;48.910;9.478;2024-03-08T10:55:33;97662.47;;;16.86;32.15
36284;BME280;56085;48.910;9.478;2024-03-08T10:57:58;97662.25;;;16.39;32.82
36284;BME280;56085;48.910;9.478;2024-03-08T11:00:25;97662.47;;;16.86;32.36
36284;BME280;56085;48.910;9.478;2024-03-08T11:02:52;97655.47;;;17.60;31.72
36284;BME280;56085;48.910;9.478;2024-03-08T11:05:51;97652.06;;;17.72;30.29
36284;BME280;56085;48.910;9.478;2024-03-08T11:08:19;97638.59;;;17.91;31.25
36284;BME280;56085;48.910;9.478;2024-03-08T11:10:52;97639.34;;;17.95;30.13
36284;BME280;56085;48.910;9.478;2024-03-08T11:13:41;97635.78;;;18.14;29.22
36284;BME280;56085;48.910;9.478;2024-03-08T11:16:12;97634.13;;;18.57;30.46
36284;BME280;56085;48.910;9.478;2024-03-08T11:18:38;97634.31;;;19.07;29.88
36284;BME280;56085;48.910;9.478;2024-03-08T11:21:04;97625.31;;;19.15;29.93
36284;BME280;56085;48.910;9.478;2024-03-08T11:23:37;97621.06;;;19.44;29.67
36284;BME280;56085;48.910;9.478;2024-03-08T11:26:02;97620.19;;;19.63;29.22
36284;BME280;56085;48.910;9.478;2024-03-08T11:28:32;97613.44;;;19.77;28.82
36284;BME280;56085;48.910;9.478;2024-03-08T11:33:30;97609.22;;;20.31;28.14
36284;BME280;56085;48.910;9.478;2024-03-08T11:36:10;97607.09;;;20.35;27.23
36284;BME280;56085;48.910;9.478;2024-03-08T11:38:44;97603.50;;;20.35;27.36
36284;BME280;56085;48.910;9.478;2024-03-08T11:41:17;97596.69;;;20.78;27.39
36284;BME280;56085;48.910;9.478;2024-03-08T11:43:43;97595.00;;;20.93;27.15
36284;BME280;56085;48.910;9.478;2024-03-08T11:46:09;97599.06;;;20.92;26.99
36284;BME280;56085;48.910;9.478;2024-03-08T11:48:34;97586.91;;;20.83;26.95
36284;BME280;56085;48.910;9.478;2024-03-08T11:51:01;97589.25;;;21.36;27.16
36284;BME280;56085;48.910;9.478;2024-03-08T11:53:27;97581.97;;;21.25;26.56
36284;BME280;56085;48.910;9.478;2024-03-08T11:55:52;97578.09;;;21.71;26.39
36284;BME280;56085;48.910;9.478;2024-03-08T11:58:17;97563.66;;;21.82;25.97
36284;BME280;56085;48.910;9.478;2024-03-08T12:00:43;97555.75;;;21.89;25.97
36284;BME280;56085;48.910;9.478;2024-03-08T12:03:11;97557.16;;;22.29;25.71
36284;BME280;56085;48.910;9.478;2024-03-08T12:05:37;97553.09;;;22.30;25.71
36284;BME280;56085;48.910;9.478;2024-03-08T12:08:04;97550.56;;;22.45;25.51
36284;BME280;56085;48.910;9.478;2024-03-08T12:10:32;97551.16;;;22.40;25.19
36284;BME280;56085;48.910;9.478;2024-03-08T12:12:58;97546.16;;;22.44;24.66
36284;BME280;56085;48.910;9.478;2024-03-08T12:15:28;97534.25;;;22.62;24.26
36284;BME280;56085;48.910;9.478;2024-03-08T12:17:55;97537.91;;;22.49;24.83
36284;BME280;56085;48.910;9.478;2024-03-08T12:20:25;97531.66;;;22.77;24.30
36284;BME280;56085;48.910;9.478;2024-03-08T12:22:53;97521.53;;;22.89;24.50
36284;BME280;56085;48.910;9.478;2024-03-08T12:25:19;97520.47;;;22.64;24.05
36284;BME280;56085;48.910;9.478;2024-03-08T12:27:45;97516.50;;;22.52;24.12
36284;BME280;56085;48.910;9.478;2024-03-08T12:30:24;97515.41;;;22.81;23.44
36284;BME280;56085;48.910;9.478;2024-03-08T12:32:54;97519.06;;;23.00;23.99
36284;BME280;56085;48.910;9.478;2024-03-08T12:35:22;97512.13;;;23.23;23.95
36284;BME280;56085;48.910;9.478;2024-03-08T12:37:50;97502.59;;;23.48;23.74
36284;BME280;56085;48.910;9.478;2024-03-08T12:40:16;97502.44;;;23.80;23.29
36284;BME280;56085;48.910;9.478;2024-03-08T12:42:43;97497.59;;;24.17;22.97
36284;BME280;56085;48.910;9.478;2024-03-08T12:45:09;97495.50;;;24.46;22.60
36284;BME280;56085;48.910;9.478;2024-03-08T12:47:35;97489.56;;;24.86;22.23
36284;BME280;56085;48.910;9.478;2024-03-08T12:50:01;97482.59;;;26.47;19.68
36284;BME280;56085;48.910;9.478;2024-03-08T12:52:26;97473.06;;;27.51;18.71
36284;BME280;56085;48.910;9.478;2024-03-08T12:54:51;97467.53;;;30.03;18.16
36284;BME280;56085;48.910;9.478;2024-03-08T12:57:17;97443.94;;;36.11;13.95
36284;BME280;56085;48.910;9.478;2024-03-08T12:59:42;97432.88;;;38.46;11.57
36284;BME280;56085;48.910;9.478;2024-03-08T13:02:07;97434.66;;;39.82;10.27
36284;BME280;56085;48.910;9.478;2024-03-08T13:04:36;97422.16;;;42.09;9.40
36284;BME280;56085;48.910;9.478;2024-03-08T13:07:02;97418.53;;;42.82;8.02
36284;BME280;56085;48.910;9.478;2024-03-08T13:09:27;97412.06;;;43.21;8.18
36284;BME280;56085;48.910;9.478;2024-03-08T13:11:52;97399.22;;;44.85;7.86